La Para, Argentina
Current Conditions -  °F | °C
As of 5:00 PM on Wednesday 22 Oct 2014 (Local Time) from SACO Reporting Station
Clear Clear  
Wind Chill: 91°   Ceiling: Unl
Heat Index: 91°   Visibility: 6mi
Dew Point: 52°   Wind: 20mph
Humidity: 26%   Direction: 50°NE
Pressure: 29.91"   Gusts: 32mph
Location:  30.87°S, 62.98°W
Report Text: SACO 222000Z 05017G28KT CAVOK 33/11 Q1013
Loading
Personal Weather Stations






























Interactive Weather Map
Tropical Storm Tracking
New forecast layout! Learn more

10-Day Weather Forecast

Advertisements
Track Severe Weather on mobile